createdAt,value
2018-11-23T00:00:26.199Z,3.62
2018-11-23T00:02:55.409Z,3.58
2018-11-23T00:05:23.990Z,3.58
2018-11-23T00:07:52.935Z,3.42
2018-11-23T00:10:22.648Z,3.54
2018-11-23T00:12:51.370Z,3.42
2018-11-23T00:15:21.993Z,3.42
2018-11-23T00:17:50.560Z,3.37
2018-11-23T00:20:20.580Z,3.39
2018-11-23T00:22:49.407Z,3.55
2018-11-23T00:25:19.073Z,3.57
2018-11-23T00:27:48.043Z,3.45
2018-11-23T00:30:19.699Z,3.46
2018-11-23T00:32:48.622Z,3.46
2018-11-23T00:35:19.311Z,3.60
2018-11-23T00:37:49.535Z,3.67
2018-11-23T00:40:20.524Z,3.69
2018-11-23T00:42:49.657Z,3.57
2018-11-23T00:45:18.867Z,3.56
2018-11-23T00:47:49.217Z,3.64
2018-11-23T00:50:19.041Z,3.69
2018-11-23T00:52:48.671Z,3.69
2018-11-23T00:55:19.101Z,3.71
2018-11-23T00:57:47.834Z,3.68
2018-11-23T01:00:24.247Z,3.70
2018-11-23T01:02:53.547Z,3.71
2018-11-23T01:05:22.518Z,3.71
2018-11-23T01:07:51.455Z,3.71
2018-11-23T01:10:21.348Z,3.71
2018-11-23T01:12:51.326Z,3.71
2018-11-23T01:15:20.029Z,3.70
2018-11-23T01:17:48.788Z,3.70
2018-11-23T01:20:21.144Z,3.72
2018-11-23T01:22:50.356Z,3.76
2018-11-23T01:25:20.142Z,3.73
2018-11-23T01:27:49.846Z,3.76
2018-11-23T01:30:21.477Z,3.79
2018-11-23T01:32:50.085Z,-1.91
2018-11-23T01:35:18.644Z,3.77
2018-11-23T01:37:47.278Z,3.77
2018-11-23T01:40:18.172Z,3.79
2018-11-23T01:42:47.094Z,3.78
2018-11-23T01:45:16.059Z,3.75
2018-11-23T01:47:44.593Z,3.79
2018-11-23T01:50:16.474Z,3.78
2018-11-23T01:52:46.197Z,3.78
2018-11-23T01:55:15.459Z,3.81
2018-11-23T01:57:45.382Z,3.83
2018-11-23T02:00:16.194Z,3.82
2018-11-23T02:02:45.239Z,3.85
2018-11-23T02:05:13.726Z,3.85
2018-11-23T02:07:42.188Z,3.80
2018-11-23T02:10:12.222Z,3.74
2018-11-23T02:12:41.077Z,3.78
2018-11-23T02:15:13.823Z,3.65
2018-11-23T02:17:42.458Z,3.59
2018-11-23T02:20:12.303Z,3.51
2018-11-23T02:22:40.835Z,3.55
2018-11-23T02:25:09.452Z,3.56
2018-11-23T02:27:38.028Z,3.42
2018-11-23T02:30:17.396Z,3.53
2018-11-23T02:32:45.933Z,3.60
2018-11-23T02:35:15.206Z,3.59
2018-11-23T02:37:43.778Z,3.60
2018-11-23T02:40:13.577Z,3.48
2018-11-23T02:42:42.692Z,3.60
2018-11-23T02:45:13.679Z,3.69
2018-11-23T02:47:43.038Z,3.74
2018-11-23T02:50:11.505Z,3.60
2018-11-23T02:52:40.803Z,3.66
2018-11-23T02:55:10.294Z,3.71
2018-11-23T02:57:38.912Z,3.72
2018-11-23T03:00:13.461Z,3.64
2018-11-23T03:02:42.326Z,3.64
2018-11-23T03:05:12.671Z,3.61
2018-11-23T03:07:41.531Z,3.77
2018-11-23T03:10:11.024Z,3.60
2018-11-23T03:12:40.156Z,3.66
2018-11-23T03:15:10.191Z,3.70
2018-11-23T03:17:38.806Z,3.70
2018-11-23T03:20:09.719Z,3.71
2018-11-23T03:22:38.376Z,3.79
2018-11-23T03:25:07.302Z,3.68
2018-11-23T03:27:35.912Z,3.69
2018-11-23T03:30:05.291Z,3.69
2018-11-23T03:32:33.859Z,3.72
2018-11-23T03:35:02.429Z,3.87
2018-11-23T03:37:31.004Z,3.90
2018-11-23T03:39:59.588Z,3.74
2018-11-23T03:42:28.180Z,3.74
2018-11-23T03:44:56.716Z,3.70
2018-11-23T03:47:25.275Z,3.79
2018-11-23T03:49:53.965Z,3.86
2018-11-23T03:52:22.553Z,3.85
2018-11-23T03:54:51.164Z,3.83
2018-11-23T03:57:19.842Z,3.88
2018-11-23T03:59:48.401Z,3.87
2018-11-23T04:02:17.042Z,3.87
2018-11-23T04:04:45.689Z,3.69
2018-11-23T04:07:14.284Z,3.83
2018-11-23T04:09:42.856Z,3.90
2018-11-23T04:12:11.440Z,3.94
2018-11-23T04:14:39.997Z,3.98
2018-11-23T04:17:08.568Z,3.96
2018-11-23T04:19:37.107Z,3.97
2018-11-23T04:22:05.795Z,4.01
2018-11-23T04:24:34.355Z,4.01
2018-11-23T04:27:02.991Z,4.03
2018-11-23T04:29:31.546Z,4.02
2018-11-23T04:32:00.068Z,3.99
2018-11-23T04:34:28.791Z,4.01
2018-11-23T04:36:57.859Z,4.00
2018-11-23T04:39:26.409Z,4.01
2018-11-23T04:41:54.938Z,3.96
2018-11-23T04:44:23.483Z,3.93
2018-11-23T04:46:52.108Z,3.92
2018-11-23T04:49:20.704Z,3.83
2018-11-23T04:51:49.272Z,3.82
2018-11-23T04:54:17.788Z,3.78
2018-11-23T04:56:46.393Z,3.82
2018-11-23T04:59:14.968Z,3.88
2018-11-23T05:01:43.614Z,3.69
2018-11-23T05:04:12.270Z,3.73
2018-11-23T05:06:40.859Z,3.98
2018-11-23T05:09:10.303Z,4.03
2018-11-23T05:11:39.276Z,4.07
2018-11-23T05:14:08.241Z,4.04
2018-11-23T05:16:36.807Z,4.07
2018-11-23T05:19:05.771Z,4.10
2018-11-23T05:21:34.400Z,4.12
2018-11-23T05:24:03.135Z,4.12
2018-11-23T05:26:31.840Z,4.15
2018-11-23T05:29:00.481Z,4.11
2018-11-23T05:31:29.279Z,4.14
2018-11-23T05:33:57.852Z,4.17
2018-11-23T05:36:26.400Z,4.06
2018-11-23T05:38:54.941Z,3.98
2018-11-23T05:41:23.496Z,3.87
2018-11-23T05:43:52.023Z,3.82
2018-11-23T05:46:20.661Z,4.04
2018-11-23T05:48:49.368Z,4.10
2018-11-23T05:51:17.898Z,3.90
2018-11-23T05:53:46.602Z,3.91
2018-11-23T05:56:15.563Z,3.90
2018-11-23T05:58:44.435Z,4.02
2018-11-23T06:01:13.289Z,4.11
2018-11-23T06:03:41.953Z,4.13
2018-11-23T06:06:10.829Z,4.08
2018-11-23T06:08:39.575Z,3.99
2018-11-23T06:11:08.395Z,4.01
2018-11-23T06:13:37.246Z,3.97
2018-11-23T06:16:06.239Z,3.99
2018-11-23T06:18:34.963Z,3.74
2018-11-23T06:21:04.753Z,4.00
2018-11-23T06:23:33.320Z,3.99
2018-11-23T06:26:35.110Z,3.97
2018-11-23T06:29:03.794Z,3.96
2018-11-23T06:31:32.353Z,3.92
2018-11-23T06:34:00.904Z,3.92
2018-11-23T06:36:29.431Z,3.86
2018-11-23T06:38:58.161Z,3.87
2018-11-23T06:41:26.776Z,3.91
2018-11-23T06:43:55.444Z,3.90
2018-11-23T06:46:23.990Z,3.94
2018-11-23T06:48:52.624Z,3.95
2018-11-23T06:51:21.212Z,3.93
2018-11-23T06:53:49.760Z,3.91
2018-11-23T06:56:18.380Z,4.00
2018-11-23T06:58:46.956Z,4.02
2018-11-23T07:01:15.522Z,4.01
2018-11-23T07:03:44.113Z,4.03
2018-11-23T07:06:12.683Z,4.04
2018-11-23T07:08:41.265Z,4.02
2018-11-23T07:11:09.882Z,3.89
2018-11-23T07:13:38.455Z,3.77
2018-11-23T07:16:07.052Z,3.77
2018-11-23T07:18:35.640Z,3.72
2018-11-23T07:21:04.256Z,3.71
2018-11-23T07:23:32.826Z,3.75
2018-11-23T07:26:01.470Z,3.75
2018-11-23T07:28:30.077Z,3.75
2018-11-23T07:31:02.525Z,3.75
2018-11-23T07:33:27.966Z,3.72
2018-11-23T07:35:56.572Z,3.74
2018-11-23T07:38:25.295Z,3.69
2018-11-23T07:41:04.884Z,3.73
2018-11-23T07:43:33.601Z,3.77
2018-11-23T07:46:02.310Z,3.77
2018-11-23T07:48:30.859Z,3.79
2018-11-23T07:50:59.557Z,3.83
2018-11-23T07:53:28.223Z,3.90
2018-11-23T07:55:57.132Z,3.96
2018-11-23T07:58:25.850Z,4.01
2018-11-23T08:00:54.483Z,4.05
2018-11-23T08:03:23.112Z,4.06
2018-11-23T08:05:51.676Z,4.09
2018-11-23T08:08:20.287Z,4.17
2018-11-23T08:10:48.018Z,4.22
2018-11-23T08:13:16.602Z,4.22
2018-11-23T08:15:45.163Z,4.23
2018-11-23T08:18:13.734Z,4.26
2018-11-23T08:20:42.388Z,4.23
2018-11-23T08:23:10.996Z,4.18
2018-11-23T08:25:39.589Z,4.21
2018-11-23T08:28:08.277Z,4.22
2018-11-23T08:30:36.988Z,4.26
2018-11-23T08:33:05.717Z,4.25
2018-11-23T08:35:34.329Z,4.26
2018-11-23T08:38:02.956Z,4.26
2018-11-23T08:40:31.524Z,4.21
2018-11-23T08:43:00.085Z,4.20
2018-11-23T08:45:28.732Z,4.24
2018-11-23T08:47:57.919Z,4.28
2018-11-23T08:50:28.735Z,4.25
2018-11-23T08:52:57.402Z,4.32
2018-11-23T08:55:26.213Z,4.36
2018-11-23T08:57:54.821Z,4.38
2018-11-23T09:00:29.670Z,4.35
2018-11-23T09:03:00.605Z,4.29
2018-11-23T09:05:29.184Z,4.28
2018-11-23T09:07:58.544Z,4.30
2018-11-23T09:10:29.658Z,4.33
2018-11-23T09:13:00.823Z,4.39
2018-11-23T09:15:29.390Z,4.39
2018-11-23T09:17:58.020Z,4.35
2018-11-23T09:20:28.059Z,4.33
2018-11-23T09:22:56.669Z,4.32
2018-11-23T09:25:25.489Z,4.32
2018-11-23T09:27:54.203Z,4.31
2018-11-23T09:30:25.331Z,4.31
2018-11-23T09:32:54.943Z,4.33
2018-11-23T09:35:26.528Z,4.39
2018-11-23T09:37:55.191Z,4.42
2018-11-23T09:40:25.391Z,4.43
2018-11-23T09:42:54.458Z,4.43
2018-11-23T09:45:25.762Z,4.32
2018-11-23T09:47:55.784Z,4.52
2018-11-23T09:50:25.214Z,4.54
2018-11-23T09:52:56.408Z,4.49
2018-11-23T09:55:25.731Z,4.20
2018-11-23T09:57:54.251Z,4.20
2018-11-23T10:00:28.177Z,4.51
2018-11-23T10:02:57.454Z,4.33
2018-11-23T10:05:26.817Z,4.74
2018-11-23T10:07:57.817Z,4.85
2018-11-23T10:10:27.060Z,4.52
2018-11-23T10:12:56.745Z,4.49
2018-11-23T10:15:26.619Z,4.46
2018-11-23T10:17:55.198Z,4.53
2018-11-23T10:20:26.042Z,4.57
2018-11-23T10:22:54.663Z,4.56
2018-11-23T10:25:28.528Z,4.59
2018-11-23T10:27:57.192Z,4.54
2018-11-23T10:30:28.056Z,4.51
2018-11-23T10:32:58.039Z,4.43
2018-11-23T10:35:26.830Z,4.38
2018-11-23T10:37:56.669Z,4.29
2018-11-23T10:40:26.792Z,4.23
2018-11-23T10:42:55.312Z,4.23
2018-11-23T10:45:25.395Z,4.27
2018-11-23T10:47:54.638Z,4.29
2018-11-23T10:50:24.804Z,4.33
2018-11-23T10:52:53.325Z,4.40
2018-11-23T10:55:24.195Z,4.48
2018-11-23T10:57:52.737Z,4.49
2018-11-23T11:00:26.395Z,1.15
2018-11-23T11:03:00.680Z,4.41
2018-11-23T11:05:30.300Z,4.49
2018-11-23T11:08:02.315Z,4.43
2018-11-23T11:10:30.828Z,4.37
2018-11-23T11:12:59.370Z,4.33
2018-11-23T11:15:27.923Z,4.27
2018-11-23T11:17:56.428Z,4.22
2018-11-23T11:20:25.060Z,4.21
2018-11-23T11:22:53.603Z,4.17
2018-11-23T11:25:22.153Z,4.13
2018-11-23T11:27:50.739Z,4.08
2018-11-23T11:30:19.956Z,4.10
2018-11-23T11:32:49.270Z,4.08
2018-11-23T11:35:17.805Z,4.07
2018-11-23T11:37:46.372Z,4.06
2018-11-23T11:40:16.568Z,4.07
2018-11-23T11:42:45.547Z,4.07
2018-11-23T11:45:15.446Z,4.08
2018-11-23T11:47:44.685Z,4.10
2018-11-23T11:50:13.687Z,4.09
2018-11-23T11:52:43.573Z,4.10
2018-11-23T11:55:15.020Z,4.03
2018-11-23T11:57:44.206Z,4.00
2018-11-23T12:00:17.318Z,3.97
2018-11-23T12:02:45.944Z,3.93
2018-11-23T12:05:14.779Z,3.87
2018-11-23T12:07:43.298Z,3.84
2018-11-23T12:10:15.530Z,3.80
2018-11-23T12:12:44.372Z,3.77
2018-11-23T12:15:13.641Z,3.80
2018-11-23T12:17:42.425Z,3.80
2018-11-23T12:20:15.142Z,3.81
2018-11-23T12:22:43.787Z,3.85
2018-11-23T12:25:12.408Z,3.89
2018-11-23T12:27:40.999Z,3.93
2018-11-23T12:30:12.243Z,3.96
2018-11-23T12:32:41.359Z,3.98
2018-11-23T12:35:11.191Z,4.02
2018-11-23T12:37:39.909Z,3.98
2018-11-23T12:40:10.242Z,3.93
2018-11-23T12:42:38.775Z,3.88
2018-11-23T12:45:08.931Z,3.88
2018-11-23T12:47:37.453Z,3.86
2018-11-23T12:50:08.556Z,3.82
2018-11-23T12:52:37.050Z,3.80
2018-11-23T12:55:06.486Z,3.78
2018-11-23T12:57:34.992Z,3.78
2018-11-23T13:00:03.665Z,3.80
2018-11-23T13:02:32.156Z,3.86
2018-11-23T13:05:00.683Z,3.90
2018-11-23T13:07:29.255Z,3.91
2018-11-23T13:09:57.775Z,3.88
2018-11-23T13:12:26.281Z,3.85
2018-11-23T13:14:54.978Z,3.81
2018-11-23T13:17:23.728Z,3.77
2018-11-23T13:19:52.243Z,3.77
2018-11-23T13:22:20.949Z,3.80
2018-11-23T13:24:49.449Z,3.83
2018-11-23T13:27:18.488Z,3.86
2018-11-23T13:29:47.915Z,3.87
2018-11-23T13:32:16.909Z,3.90
2018-11-23T13:34:45.446Z,3.91
2018-11-23T13:37:13.952Z,3.91
2018-11-23T13:39:42.848Z,3.95
2018-11-23T13:42:11.375Z,3.91
2018-11-23T13:44:39.911Z,3.84
2018-11-23T13:47:08.402Z,3.79
2018-11-23T13:49:36.924Z,3.74
2018-11-23T13:52:05.448Z,3.88
2018-11-23T13:54:33.942Z,3.67
2018-11-23T13:57:02.448Z,3.63
2018-11-23T13:59:30.949Z,3.64
2018-11-23T14:01:59.473Z,3.69
2018-11-23T14:04:27.991Z,3.69
2018-11-23T14:06:56.483Z,3.66
2018-11-23T14:09:25.007Z,3.64
2018-11-23T14:11:53.535Z,3.62
2018-11-23T14:14:22.077Z,3.59
2018-11-23T14:16:50.676Z,3.58
2018-11-23T14:19:19.183Z,3.53
2018-11-23T14:21:47.744Z,3.53
2018-11-23T14:24:16.294Z,3.52
2018-11-23T14:26:44.822Z,3.52
2018-11-23T14:29:13.320Z,3.51
2018-11-23T14:31:41.832Z,3.55
2018-11-23T14:34:10.350Z,3.57
2018-11-23T14:36:38.878Z,3.60
2018-11-23T14:39:08.789Z,3.59
2018-11-23T14:41:37.508Z,3.65
2018-11-23T14:44:07.014Z,3.66
2018-11-23T14:46:34.564Z,3.63
2018-11-23T14:49:03.073Z,3.59
2018-11-23T14:51:31.567Z,3.87
2018-11-23T14:54:00.121Z,3.52
2018-11-23T14:56:28.610Z,3.44
2018-11-23T14:58:57.087Z,3.44
2018-11-23T15:01:26.020Z,3.45
2018-11-23T15:03:54.522Z,3.44
2018-11-23T15:06:23.016Z,3.41
2018-11-23T15:08:51.602Z,3.42
2018-11-23T15:11:20.107Z,3.44
2018-11-23T15:13:48.607Z,3.41
2018-11-23T15:16:17.092Z,3.40
2018-11-23T15:18:45.597Z,3.42
2018-11-23T15:21:14.096Z,3.38
2018-11-23T15:23:42.649Z,3.39
2018-11-23T15:26:11.166Z,3.38
2018-11-23T15:28:39.673Z,3.41
2018-11-23T15:31:08.162Z,3.39
2018-11-23T15:33:36.671Z,3.34
2018-11-23T15:36:05.486Z,3.34
2018-11-23T15:38:33.990Z,3.32
2018-11-23T15:41:02.513Z,3.27
2018-11-23T15:43:31.049Z,3.23
2018-11-23T15:45:59.568Z,3.27
2018-11-23T15:48:28.087Z,3.24
2018-11-23T15:50:56.659Z,3.26
2018-11-23T15:53:25.180Z,3.21
2018-11-23T15:55:53.671Z,3.21
2018-11-23T15:58:22.175Z,3.17
2018-11-23T16:00:50.700Z,3.12
2018-11-23T16:03:19.205Z,3.13
2018-11-23T16:05:47.723Z,3.11
2018-11-23T16:08:17.870Z,3.14
2018-11-23T16:10:46.388Z,3.15
2018-11-23T16:13:14.928Z,3.13
2018-11-23T16:15:43.456Z,3.10
2018-11-23T16:18:12.371Z,3.07
2018-11-23T16:20:42.949Z,3.05
2018-11-23T16:23:12.873Z,3.04
2018-11-23T16:25:41.964Z,3.05
2018-11-23T16:28:11.048Z,3.06
2018-11-23T16:30:40.868Z,3.04
2018-11-23T16:33:11.106Z,3.04
2018-11-23T16:35:40.392Z,3.01
2018-11-23T16:38:11.105Z,3.02
2018-11-23T16:40:41.046Z,3.03
2018-11-23T16:43:10.680Z,3.35
2018-11-23T16:45:39.644Z,3.06
2018-11-23T16:48:09.261Z,3.06
2018-11-23T16:50:37.745Z,2.98
2018-11-23T16:53:06.550Z,3.28
2018-11-23T16:55:35.163Z,3.03
2018-11-23T16:58:05.928Z,3.01
2018-11-23T17:00:35.664Z,3.02
2018-11-23T17:03:05.558Z,3.02
2018-11-23T17:05:35.581Z,3.03
2018-11-23T17:08:04.288Z,3.02
2018-11-23T17:10:32.795Z,3.03
2018-11-23T17:13:01.291Z,3.05
2018-11-23T17:15:30.207Z,3.05
2018-11-23T17:17:58.702Z,3.06
2018-11-23T17:20:28.613Z,3.07
2018-11-23T17:22:58.412Z,3.06
2018-11-23T17:25:27.651Z,3.05
2018-11-23T17:27:57.339Z,3.06
2018-11-23T17:30:27.095Z,3.10
2018-11-23T17:32:55.943Z,3.07
2018-11-23T17:35:24.567Z,3.07
2018-11-23T17:37:53.168Z,3.07
2018-11-23T17:40:23.037Z,3.05
2018-11-23T17:42:51.545Z,3.05
2018-11-23T17:45:21.835Z,3.05
2018-11-23T17:47:50.739Z,3.05
2018-11-23T17:50:20.642Z,3.08
2018-11-23T17:52:49.484Z,3.05
2018-11-23T17:55:17.981Z,3.27
2018-11-23T17:57:47.110Z,3.04
2018-11-23T18:00:17.696Z,3.08
2018-11-23T18:02:46.717Z,3.11
2018-11-23T18:05:16.136Z,3.09
2018-11-23T18:07:44.654Z,3.07
2018-11-23T18:10:15.638Z,3.08
2018-11-23T18:12:44.656Z,3.09
2018-11-23T18:15:15.695Z,3.10
2018-11-23T18:17:44.689Z,3.09
2018-11-23T18:20:14.414Z,3.09
2018-11-23T18:22:43.393Z,3.09
2018-11-23T18:25:20.237Z,3.08
2018-11-23T18:27:49.073Z,3.10
2018-11-23T18:30:17.576Z,3.11
2018-11-23T18:32:46.068Z,3.11
2018-11-23T18:35:14.596Z,3.14
2018-11-23T18:37:43.149Z,3.13
2018-11-23T18:40:13.324Z,3.08
2018-11-23T18:42:41.830Z,3.07
2018-11-23T18:45:11.512Z,3.08
2018-11-23T18:47:40.198Z,3.07
2018-11-23T18:50:11.854Z,3.06
2018-11-23T18:52:40.352Z,3.04
2018-11-23T18:55:09.605Z,3.03
2018-11-23T18:57:38.105Z,3.03
2018-11-23T19:00:09.324Z,3.03
2018-11-23T19:02:37.828Z,3.03
2018-11-23T19:05:09.189Z,3.03
2018-11-23T19:07:37.685Z,3.05
2018-11-23T19:10:09.140Z,3.08
2018-11-23T19:12:37.645Z,3.05
2018-11-23T19:15:08.249Z,3.07
2018-11-23T19:17:36.743Z,3.05
2018-11-23T19:20:08.923Z,3.06
2018-11-23T19:22:37.423Z,3.04
2018-11-23T19:25:06.345Z,3.01
2018-11-23T19:27:35.157Z,2.99
2018-11-23T19:30:03.693Z,2.99
2018-11-23T19:32:32.197Z,2.99
2018-11-23T19:35:00.704Z,3.00
2018-11-23T19:37:29.200Z,3.00
2018-11-23T19:39:57.692Z,3.00
2018-11-23T19:42:26.205Z,2.99
2018-11-23T19:44:54.712Z,2.99
2018-11-23T19:47:23.251Z,3.00
2018-11-23T19:49:51.764Z,2.98
2018-11-23T19:52:20.293Z,2.97
2018-11-23T19:54:48.772Z,2.97
2018-11-23T19:57:17.284Z,2.96
2018-11-23T19:59:45.776Z,2.98
2018-11-23T20:02:14.260Z,3.02
2018-11-23T20:04:42.764Z,3.01
2018-11-23T20:07:11.284Z,3.01
2018-11-23T20:09:40.126Z,3.01
2018-11-23T20:12:08.341Z,3.04
2018-11-23T20:14:36.836Z,3.04
2018-11-23T20:17:05.511Z,3.03
2018-11-23T20:19:34.033Z,3.05
2018-11-23T20:22:02.557Z,3.10
2018-11-23T20:24:31.080Z,3.10
2018-11-23T20:26:59.584Z,3.09
2018-11-23T20:29:28.085Z,3.06
2018-11-23T20:31:56.613Z,3.09
2018-11-23T20:34:25.113Z,3.09
2018-11-23T20:36:53.612Z,3.09
2018-11-23T20:39:22.104Z,3.10
2018-11-23T20:41:50.603Z,3.10
2018-11-23T20:44:19.092Z,3.11
2018-11-23T20:46:47.608Z,3.13
2018-11-23T20:49:16.133Z,3.11
2018-11-23T20:51:44.662Z,3.12
2018-11-23T20:54:13.168Z,3.13
2018-11-23T20:56:41.700Z,3.13
2018-11-23T20:59:10.253Z,3.13
2018-11-23T21:01:38.761Z,3.14
2018-11-23T21:04:07.309Z,3.14
2018-11-23T21:06:35.853Z,3.15
2018-11-23T21:09:06.590Z,3.16
2018-11-23T21:11:35.086Z,3.19
2018-11-23T21:14:03.732Z,3.19
2018-11-23T21:16:32.237Z,3.19
2018-11-23T21:19:00.719Z,3.20
2018-11-23T21:21:29.360Z,3.22
2018-11-23T21:23:57.913Z,3.23
2018-11-23T21:26:26.440Z,3.26
2018-11-23T21:28:54.989Z,3.27
2018-11-23T21:31:23.524Z,3.26
2018-11-23T21:33:52.079Z,3.28
2018-11-23T21:36:20.576Z,3.26
2018-11-23T21:38:49.085Z,3.26
2018-11-23T21:41:17.733Z,3.28
2018-11-23T21:43:46.240Z,3.28
2018-11-23T21:46:14.750Z,3.29
2018-11-23T21:48:43.248Z,3.29
2018-11-23T21:51:11.811Z,3.30
2018-11-23T21:53:40.375Z,3.32
2018-11-23T21:56:09.425Z,3.34
2018-11-23T21:58:37.470Z,3.33
2018-11-23T22:01:06.145Z,3.35
2018-11-23T22:03:34.678Z,3.32
2018-11-23T22:06:03.176Z,3.32
2018-11-23T22:08:31.704Z,3.32
2018-11-23T22:11:00.204Z,3.33
2018-11-23T22:13:28.708Z,3.37
2018-11-23T22:15:57.220Z,3.39
2018-11-23T22:18:25.725Z,3.38
2018-11-23T22:20:54.238Z,3.46
2018-11-23T22:23:22.738Z,3.43
2018-11-23T22:25:51.247Z,3.44
2018-11-23T22:28:19.849Z,3.43
2018-11-23T22:30:48.374Z,3.49
2018-11-23T22:33:16.916Z,3.75
2018-11-23T22:35:48.222Z,3.74
2018-11-23T22:38:14.000Z,3.84
2018-11-23T22:40:42.514Z,3.88
2018-11-23T22:43:11.022Z,3.83
2018-11-23T22:45:39.516Z,3.79
2018-11-23T22:48:08.020Z,3.54
2018-11-23T22:50:36.529Z,3.68
2018-11-23T22:53:05.093Z,3.79
2018-11-23T22:55:33.595Z,3.85
2018-11-23T22:58:02.102Z,3.55
2018-11-23T23:00:38.525Z,3.89
2018-11-23T23:03:07.131Z,3.86
2018-11-23T23:05:35.632Z,3.65
2018-11-23T23:08:04.188Z,3.54
2018-11-23T23:10:32.702Z,3.51
2018-11-23T23:13:01.201Z,3.57
2018-11-23T23:15:29.733Z,3.53
2018-11-23T23:17:58.225Z,3.77
2018-11-23T23:20:26.726Z,3.58
2018-11-23T23:22:55.261Z,3.55
2018-11-23T23:25:23.756Z,3.59
2018-11-23T23:27:52.254Z,3.56
2018-11-23T23:30:20.768Z,3.57
2018-11-23T23:32:49.626Z,3.57
2018-11-23T23:35:18.416Z,3.59
2018-11-23T23:37:46.929Z,3.59
2018-11-23T23:40:17.169Z,3.58
2018-11-23T23:42:46.145Z,3.60
2018-11-23T23:45:16.604Z,3.59
2018-11-23T23:47:45.092Z,3.58
2018-11-23T23:50:19.523Z,3.58
2018-11-23T23:52:48.074Z,3.57
2018-11-23T23:55:16.591Z,3.58
2018-11-23T23:57:45.925Z,3.57
